Time;durP1;ratioP1;P1;durP2;ratioP2;P2;SDS_P1;SDS_P2;PMS_P1;PMS_P2;Temp;Humidity;BMP_temperature;BMP_pressure;BME280_temperature;BME280_humidity;BME280_pressure;Samples;Min_cycle;Max_cycle;Signal;HPM_P1;HPM_P2
2021/06/14 00:01:17;;;;;;;3.57;3.27;;;13.40;99.90;;;;;;5105878;28;20561;-68
2021/06/14 00:03:44;;;;;;;6.90;3.90;;;13.40;99.90;;;;;;5105673;28;20487;-67
2021/06/14 00:06:11;;;;;;;3.50;3.20;;;13.40;99.90;;;;;;5106415;28;20827;-69
2021/06/14 00:08:41;;;;;;;3.60;2.90;;;13.40;99.90;;;;;;5105809;28;20456;-68
2021/06/14 00:11:08;;;;;;;3.57;3.27;;;13.40;99.90;;;;;;5106169;28;20897;-68
2021/06/14 00:13:35;;;;;;;4.03;3.20;;;13.30;99.90;;;;;;5105674;28;20480;-68
2021/06/14 00:16:04;;;;;;;4.13;2.83;;;13.30;99.90;;;;;;5105874;28;20465;-68
2021/06/14 00:18:31;;;;;;;4.70;3.07;;;13.20;99.90;;;;;;5106040;28;20457;-69
2021/06/14 00:20:59;;;;;;;5.20;3.73;;;13.20;99.90;;;;;;5105281;28;20852;-68
2021/06/14 00:23:28;;;;;;;3.20;2.90;;;13.10;99.90;;;;;;5107356;28;20480;-68
2021/06/14 00:25:56;;;;;;;4.50;2.97;;;13.10;99.90;;;;;;5109891;28;20464;-68
2021/06/14 00:28:22;;;;;;;3.00;2.70;;;13.10;99.90;;;;;;5111519;28;20461;-68
2021/06/14 00:30:51;;;;;;;4.93;3.30;;;13.00;99.90;;;;;;5111353;28;20460;-68
2021/06/14 00:33:20;;;;;;;3.47;3.17;;;13.10;99.90;;;;;;5111986;28;20485;-68
2021/06/14 00:35:47;;;;;;;3.90;3.37;;;13.00;99.90;;;;;;5111396;28;20460;-68
2021/06/14 00:38:15;;;;;;;4.20;3.77;;;13.00;99.90;;;;;;5111553;28;20460;-68
2021/06/14 00:40:42;;;;;;;3.47;2.97;;;13.00;99.90;;;;;;5111599;28;20460;-68
2021/06/14 00:43:10;;;;;;;4.30;3.30;;;12.90;99.90;;;;;;5111538;28;20840;-68
2021/06/14 00:45:40;;;;;;;3.57;3.13;;;12.90;99.90;;;;;;5111836;28;21003;-68
2021/06/14 00:48:09;;;;;;;6.30;3.60;;;12.90;99.90;;;;;;5111329;28;20468;-68
2021/06/14 00:50:40;;;;;;;3.57;3.20;;;12.80;99.90;;;;;;5111442;28;20464;-68
2021/06/14 00:53:09;;;;;;;3.60;3.20;;;12.80;99.90;;;;;;5111220;28;20480;-68
2021/06/14 00:55:36;;;;;;;4.30;3.33;;;12.80;99.90;;;;;;5111257;28;20951;-68
2021/06/14 00:58:03;;;;;;;5.97;3.70;;;12.80;99.90;;;;;;5111814;28;20452;-68
2021/06/14 01:00:30;;;;;;;3.10;2.80;;;12.80;99.90;;;;;;5113421;28;20835;-68
2021/06/14 01:02:57;;;;;;;4.53;3.20;;;12.80;99.90;;;;;;5112848;28;20468;-68
2021/06/14 01:05:25;;;;;;;4.30;3.10;;;12.70;99.90;;;;;;5112730;28;20849;-68
2021/06/14 01:07:53;;;;;;;3.27;2.90;;;12.70;99.90;;;;;;5112059;28;20955;-67
2021/06/14 01:10:20;;;;;;;6.03;3.40;;;12.70;99.90;;;;;;5114085;28;20912;-67
2021/06/14 01:13:06;;;;;;;3.53;3.20;;;12.60;99.90;;;;;;5113600;28;20452;-69
2021/06/14 01:15:39;;;;;;;5.70;3.53;;;12.60;99.90;;;;;;5114303;28;20480;-68
2021/06/14 01:18:11;;;;;;;4.50;3.10;;;12.60;99.90;;;;;;5113693;28;20457;-68
2021/06/14 01:20:51;;;;;;;4.13;3.40;;;12.50;99.90;;;;;;5114309;28;20461;-68
2021/06/14 01:23:59;;;;;;;6.43;3.40;;;12.50;99.90;;;;;;5111806;28;20519;-67
2021/06/14 01:26:29;;;;;;;4.17;3.40;;;12.50;99.90;;;;;;5070819;28;20447;-69
2021/06/14 01:29:00;;;;;;;3.60;3.30;;;12.50;99.90;;;;;;5072829;28;20450;-69
2021/06/14 01:31:31;;;;;;;3.60;3.30;;;12.40;99.90;;;;;;5073076;28;20457;-69
2021/06/14 01:33:58;;;;;;;3.80;3.30;;;12.40;99.90;;;;;;5073108;28;20474;-69
2021/06/14 01:36:27;;;;;;;3.90;3.57;;;12.30;99.90;;;;;;5071664;28;20992;-68
2021/06/14 01:38:56;;;;;;;3.83;2.93;;;12.30;99.90;;;;;;5073297;28;20816;-68
2021/06/14 01:41:25;;;;;;;4.70;2.97;;;12.30;99.90;;;;;;5072489;28;20457;-68
2021/06/14 01:43:52;;;;;;;3.23;2.93;;;12.30;99.90;;;;;;5072942;28;20485;-68
2021/06/14 01:46:22;;;;;;;3.67;3.33;;;12.30;99.90;;;;;;5072539;28;20474;-69
2021/06/14 01:48:49;;;;;;;5.23;3.57;;;12.30;99.90;;;;;;5075657;28;20214;-68
2021/06/14 01:51:18;;;;;;;4.00;3.60;;;12.30;99.90;;;;;;5075116;28;20466;-68
2021/06/14 01:54:02;;;;;;;4.37;2.97;;;12.20;99.90;;;;;;5072439;28;20476;-69
2021/06/14 01:56:30;;;;;;;4.00;3.50;;;12.20;99.90;;;;;;5073067;28;20540;-68
2021/06/14 01:58:59;;;;;;;3.95;3.22;;;12.10;99.90;;;;;;5072355;28;20463;-68
2021/06/14 02:01:30;;;;;;;4.40;3.30;;;12.10;99.90;;;;;;5072420;28;20219;-68
2021/06/14 02:03:57;;;;;;;4.83;3.73;;;12.10;99.90;;;;;;5071989;28;20870;-69
2021/06/14 02:06:26;;;;;;;4.90;3.70;;;12.20;99.90;;;;;;5072827;28;20466;-69
2021/06/14 02:08:53;;;;;;;4.50;3.30;;;12.10;99.90;;;;;;5072517;28;20941;-68
2021/06/14 02:11:20;;;;;;;5.20;3.83;;;12.10;99.90;;;;;;5071828;28;20984;-68
2021/06/14 02:13:47;;;;;;;5.60;3.60;;;12.10;99.90;;;;;;5072428;28;20479;-69
2021/06/14 02:16:16;;;;;;;4.40;3.90;;;12.10;99.90;;;;;;5072017;28;20837;-68
2021/06/14 02:18:44;;;;;;;4.77;4.10;;;12.00;99.90;;;;;;5072518;28;20810;-68
2021/06/14 02:21:10;;;;;;;4.63;3.70;;;12.00;99.90;;;;;;5071637;28;21282;-68
2021/06/14 02:23:37;;;;;;;4.87;3.57;;;12.00;99.90;;;;;;5072120;28;20483;-69
2021/06/14 02:26:04;;;;;;;7.70;4.10;;;12.00;99.90;;;;;;5072029;28;20834;-68
2021/06/14 02:28:31;;;;;;;4.50;3.77;;;11.90;99.90;;;;;;5071980;28;20463;-68
2021/06/14 02:30:58;;;;;;;3.93;3.63;;;11.90;99.90;;;;;;5071816;28;20458;-68
2021/06/14 02:33:24;;;;;;;6.03;4.30;;;11.90;99.90;;;;;;5071625;28;20501;-68
2021/06/14 02:35:53;;;;;;;4.63;4.20;;;11.90;99.90;;;;;;5072136;28;20463;-69
2021/06/14 02:38:20;;;;;;;6.45;3.85;;;11.80;99.90;;;;;;5071807;28;20454;-68
2021/06/14 02:40:47;;;;;;;5.05;4.10;;;11.90;99.90;;;;;;5071485;28;20207;-69
2021/06/14 02:43:14;;;;;;;4.40;3.88;;;11.80;99.90;;;;;;5071743;28;20562;-68
2021/06/14 02:45:41;;;;;;;6.00;3.10;;;11.80;99.90;;;;;;5071476;28;20228;-69
2021/06/14 02:48:09;;;;;;;3.70;3.30;;;11.80;99.90;;;;;;5071664;28;20523;-68
2021/06/14 02:50:38;;;;;;;5.28;3.65;;;11.80;99.90;;;;;;5071531;28;20466;-68
2021/06/14 02:53:13;;;;;;;3.95;3.55;;;11.70;99.90;;;;;;5071326;28;20221;-69
2021/06/14 02:55:50;;;;;;;4.40;4.00;;;11.70;99.90;;;;;;5071788;28;20204;-68
2021/06/14 02:58:22;;;;;;;4.95;3.80;;;11.70;99.90;;;;;;5071290;28;20462;-68
2021/06/14 03:00:49;;;;;;;4.10;3.55;;;11.70;99.90;;;;;;5071365;28;20208;-68
2021/06/14 03:03:16;;;;;;;7.70;3.47;;;11.60;99.90;;;;;;5070867;28;20224;-68
2021/06/14 03:05:44;;;;;;;5.47;4.23;;;11.60;99.90;;;;;;5071435;28;20482;-68
2021/06/14 03:08:13;;;;;;;6.20;4.60;;;11.60;99.90;;;;;;5070953;28;20465;-69
2021/06/14 03:10:40;;;;;;;5.25;4.03;;;11.60;99.90;;;;;;5070823;28;20463;-68
2021/06/14 03:13:07;;;;;;;8.37;4.20;;;11.60;99.90;;;;;;5070877;28;20216;-68
2021/06/14 03:15:35;;;;;;;4.50;3.50;;;11.60;99.90;;;;;;5070985;28;20462;-68
2021/06/14 03:18:02;;;;;;;5.97;4.15;;;11.60;99.90;;;;;;5071194;28;20206;-68
2021/06/14 03:20:29;;;;;;;4.32;3.63;;;11.50;99.90;;;;;;5071000;28;20211;-68
2021/06/14 03:22:56;;;;;;;4.25;3.50;;;11.50;99.90;;;;;;5070667;28;20207;-69
2021/06/14 03:25:25;;;;;;;5.65;4.05;;;11.50;99.90;;;;;;5070899;28;20346;-68
2021/06/14 03:27:53;;;;;;;4.20;3.80;;;11.60;99.90;;;;;;5070910;28;20216;-68
2021/06/14 03:30:23;;;;;;;5.75;3.90;;;11.50;99.90;;;;;;5070757;28;20958;-68
2021/06/14 03:32:50;;;;;;;4.25;3.58;;;11.50;99.90;;;;;;5070681;28;20211;-68
2021/06/14 03:35:20;;;;;;;3.85;3.38;;;11.50;99.90;;;;;;5078736;28;20666;-68
2021/06/14 03:37:48;;;;;;;5.50;4.45;;;11.50;99.90;;;;;;5081183;28;20211;-68
2021/06/14 03:40:17;;;;;;;5.05;4.20;;;11.50;99.90;;;;;;5079209;28;20193;-69
2021/06/14 03:42:45;;;;;;;5.70;3.92;;;11.50;99.90;;;;;;5080288;28;20191;-68
2021/06/14 03:45:13;;;;;;;4.15;3.85;;;11.50;99.90;;;;;;5081296;28;20239;-69
2021/06/14 03:47:40;;;;;;;8.67;4.00;;;11.50;99.90;;;;;;5080024;28;20193;-69
2021/06/14 03:50:09;;;;;;;6.72;3.58;;;11.40;99.90;;;;;;5074374;28;20454;-68
2021/06/14 03:52:39;;;;;;;4.20;3.80;;;11.40;99.90;;;;;;5075931;28;20200;-69
2021/06/14 03:55:08;;;;;;;4.07;3.63;;;11.40;99.90;;;;;;5079749;28;20192;-68
2021/06/14 03:57:35;;;;;;;4.68;3.83;;;11.50;99.90;;;;;;5079249;28;20449;-68
2021/06/14 04:00:06;;;;;;;4.87;4.40;;;11.50;99.90;;;;;;5078711;28;20466;-68
2021/06/14 04:02:32;;;;;;;4.07;3.70;;;11.50;99.90;;;;;;5077858;28;20465;-68
2021/06/14 04:04:59;;;;;;;5.85;3.70;;;11.50;99.90;;;;;;5079933;28;20215;-68
2021/06/14 04:07:26;;;;;;;4.60;3.30;;;11.50;99.90;;;;;;5079245;28;20192;-68
2021/06/14 04:09:55;;;;;;;11.57;4.10;;;11.60;99.90;;;;;;5104339;22;20966;-73
2021/06/14 04:12:22;;;;;;;5.28;4.03;;;11.60;99.90;;;;;;5078449;28;20464;-73
2021/06/14 04:14:49;;;;;;;5.93;3.70;;;11.60;99.90;;;;;;5090219;28;20203;-73
2021/06/14 04:17:17;;;;;;;4.73;3.83;;;11.60;99.90;;;;;;5090481;28;20454;-73
2021/06/14 04:19:44;;;;;;;4.30;3.90;;;11.70;99.90;;;;;;5090006;28;20906;-74
2021/06/14 04:22:10;;;;;;;4.72;4.18;;;11.70;99.90;;;;;;5090185;28;20199;-74
2021/06/14 04:24:37;;;;;;;4.80;4.10;;;11.80;99.90;;;;;;5090598;28;20203;-72
2021/06/14 04:27:05;;;;;;;5.25;4.05;;;11.80;99.90;;;;;;5090652;28;20669;-72
2021/06/14 04:29:32;;;;;;;4.60;3.63;;;11.80;99.90;;;;;;5090646;28;20590;-72
2021/06/14 04:31:59;;;;;;;5.38;4.03;;;11.90;99.90;;;;;;5090056;28;20210;-72
2021/06/14 04:34:27;;;;;;;4.80;3.60;;;11.90;99.90;;;;;;5090419;28;20211;-72
2021/06/14 04:36:55;;;;;;;4.90;3.73;;;11.90;99.90;;;;;;5090342;28;20449;-72
2021/06/14 04:39:21;;;;;;;5.30;4.43;;;11.90;99.90;;;;;;5090104;28;20477;-72
2021/06/14 04:41:48;;;;;;;5.40;4.10;;;12.00;99.90;;;;;;5090135;28;20470;-72
2021/06/14 04:44:15;;;;;;;4.73;4.17;;;12.10;99.90;;;;;;5089910;28;20460;-72
2021/06/14 04:46:42;;;;;;;7.07;4.23;;;12.20;99.90;;;;;;5089727;28;20486;-72
2021/06/14 04:49:08;;;;;;;6.13;4.23;;;12.30;99.90;;;;;;5089589;28;20923;-72
2021/06/14 04:51:37;;;;;;;5.33;4.47;;;12.30;99.90;;;;;;5089499;28;20975;-72
2021/06/14 04:54:04;;;;;;;4.13;3.73;;;12.50;99.90;;;;;;5090086;28;20461;-72
2021/06/14 04:56:30;;;;;;;6.20;3.87;;;12.60;99.90;;;;;;5089928;28;20457;-72
2021/06/14 04:58:57;;;;;;;5.27;3.70;;;12.70;99.90;;;;;;5090169;28;20464;-72
2021/06/14 05:01:24;;;;;;;5.80;3.77;;;12.80;99.90;;;;;;5089346;28;20989;-72
2021/06/14 05:03:51;;;;;;;4.30;3.90;;;13.00;99.90;;;;;;5090220;28;20453;-71
2021/06/14 05:06:17;;;;;;;4.10;3.60;;;13.10;99.90;;;;;;5089705;28;20485;-71
2021/06/14 05:08:45;;;;;;;5.30;3.67;;;13.20;99.90;;;;;;5090137;28;20457;-72
2021/06/14 05:11:12;;;;;;;5.10;3.87;;;13.30;99.90;;;;;;5093265;28;20492;-71
2021/06/14 05:13:39;;;;;;;4.10;3.70;;;13.40;99.90;;;;;;5093148;28;20948;-71
2021/06/14 05:16:06;;;;;;;4.03;3.73;;;13.50;99.90;;;;;;5093566;28;20463;-72
2021/06/14 05:18:33;;;;;;;6.37;4.43;;;13.60;99.90;;;;;;5093118;28;20454;-71
2021/06/14 05:21:00;;;;;;;4.33;3.93;;;13.60;99.90;;;;;;5073078;28;20527;-71
2021/06/14 05:23:27;;;;;;;5.43;4.40;;;13.70;99.90;;;;;;5073441;28;20462;-72
2021/06/14 05:25:55;;;;;;;6.60;4.20;;;13.80;99.90;;;;;;5093162;28;20488;-72
2021/06/14 05:28:22;;;;;;;4.57;3.50;;;13.80;99.90;;;;;;5093557;28;20488;-72
2021/06/14 05:30:48;;;;;;;5.10;3.63;;;13.90;99.90;;;;;;5093019;28;20484;-72
2021/06/14 05:33:15;;;;;;;5.40;3.63;;;13.90;99.90;;;;;;5093343;28;20462;-71
2021/06/14 05:35:42;;;;;;;5.43;4.10;;;13.90;99.90;;;;;;5093106;28;20453;-71
2021/06/14 05:38:08;;;;;;;4.07;3.67;;;14.00;99.90;;;;;;5093224;28;20457;-72
2021/06/14 05:40:35;;;;;;;4.47;3.40;;;14.00;99.90;;;;;;5093376;28;20489;-71
2021/06/14 05:43:03;;;;;;;5.93;3.77;;;14.10;99.90;;;;;;5092619;28;20453;-72
2021/06/14 05:45:30;;;;;;;5.67;4.40;;;14.20;99.90;;;;;;5093219;28;20481;-71
2021/06/14 05:47:57;;;;;;;4.67;3.80;;;14.20;99.90;;;;;;5092914;28;20488;-71
2021/06/14 05:50:24;;;;;;;8.70;4.00;;;14.30;99.90;;;;;;5092788;28;20841;-71
2021/06/14 05:52:50;;;;;;;5.00;3.70;;;14.40;99.90;;;;;;5092684;28;20983;-71
2021/06/14 05:55:18;;;;;;;4.93;4.13;;;14.40;99.90;;;;;;5092861;28;20457;-71
2021/06/14 05:57:45;;;;;;;5.20;4.20;;;14.50;99.90;;;;;;5093269;28;20449;-71
2021/06/14 06:00:13;;;;;;;7.33;4.03;;;14.60;99.90;;;;;;5092349;28;20478;-71
2021/06/14 06:02:40;;;;;;;6.33;3.50;;;14.60;99.90;;;;;;5092864;28;20872;-71
2021/06/14 06:05:08;;;;;;;6.97;3.70;;;14.70;99.90;;;;;;5092607;28;20949;-71
2021/06/14 06:07:35;;;;;;;8.07;3.57;;;14.80;99.90;;;;;;5092965;28;20830;-71
2021/06/14 06:10:02;;;;;;;5.50;3.80;;;14.80;99.90;;;;;;5092656;28;20481;-71
2021/06/14 06:12:29;;;;;;;4.23;3.80;;;14.90;99.90;;;;;;5092077;28;20814;-71
2021/06/14 06:14:56;;;;;;;8.10;3.87;;;14.90;99.90;;;;;;5092710;28;20453;-71
2021/06/14 06:17:24;;;;;;;5.57;3.63;;;15.00;99.90;;;;;;5092142;28;20828;-71
2021/06/14 06:19:50;;;;;;;6.60;3.67;;;15.00;99.90;;;;;;5092651;28;20477;-71
2021/06/14 06:22:17;;;;;;;4.80;3.70;;;15.00;99.90;;;;;;5091621;28;20465;-71
2021/06/14 06:24:44;;;;;;;4.40;3.60;;;15.10;99.90;;;;;;5092392;28;20814;-71
2021/06/14 06:27:11;;;;;;;4.30;3.90;;;15.20;99.90;;;;;;5092240;28;20588;-71
2021/06/14 06:29:38;;;;;;;5.40;3.30;;;15.30;99.90;;;;;;5091853;28;20488;-71
2021/06/14 06:32:05;;;;;;;4.07;3.40;;;15.40;99.90;;;;;;5092361;28;20468;-71
2021/06/14 06:34:33;;;;;;;4.87;3.30;;;15.50;99.90;;;;;;5092176;28;20460;-71
2021/06/14 06:37:00;;;;;;;4.40;3.50;;;15.60;99.90;;;;;;5092146;28;20450;-72
2021/06/14 06:39:27;;;;;;;4.50;3.20;;;15.70;99.90;;;;;;5092066;28;20477;-71
2021/06/14 06:41:55;;;;;;;5.67;3.20;;;15.80;99.90;;;;;;5091412;28;20457;-71
2021/06/14 06:44:22;;;;;;;5.20;3.30;;;15.90;99.90;;;;;;5092191;28;20476;-71
2021/06/14 06:46:49;;;;;;;4.53;3.13;;;16.00;99.90;;;;;;5091630;28;20488;-71
2021/06/14 06:49:16;;;;;;;4.30;3.00;;;16.00;99.90;;;;;;5091763;28;20470;-71
2021/06/14 06:51:44;;;;;;;5.40;3.83;;;16.10;99.90;;;;;;5091762;28;20468;-71
2021/06/14 06:54:14;;;;;;;6.57;3.73;;;16.20;99.90;;;;;;5091549;28;20465;-71
2021/06/14 06:56:42;;;;;;;6.10;3.13;;;16.30;99.90;;;;;;5091994;28;20481;-71
2021/06/14 06:59:09;;;;;;;5.90;3.63;;;16.40;99.90;;;;;;5091322;28;20536;-71
2021/06/14 07:01:36;;;;;;;3.10;2.80;;;16.50;99.90;;;;;;5091718;28;20469;-71
2021/06/14 07:04:04;;;;;;;7.47;3.67;;;16.60;99.90;;;;;;5091495;28;20480;-71
2021/06/14 07:06:31;;;;;;;8.33;3.40;;;16.70;99.90;;;;;;5091520;28;20486;-71
2021/06/14 07:09:00;;;;;;;3.97;3.30;;;16.80;99.90;;;;;;5091583;28;20465;-71
2021/06/14 07:11:28;;;;;;;10.40;3.70;;;16.80;99.90;;;;;;5091047;28;20454;-71
2021/06/14 07:13:55;;;;;;;5.90;3.10;;;16.90;99.90;;;;;;5091953;28;20459;-71
2021/06/14 07:16:23;;;;;;;5.93;3.43;;;17.00;99.90;;;;;;5091177;28;20630;-72
2021/06/14 07:18:50;;;;;;;4.77;3.33;;;17.00;99.90;;;;;;5091706;28;20480;-71
2021/06/14 07:21:18;;;;;;;4.50;3.00;;;17.10;99.90;;;;;;5091023;28;20523;-72
2021/06/14 07:23:45;;;;;;;6.10;3.53;;;17.20;99.90;;;;;;5091260;28;20458;-72
2021/06/14 07:26:13;;;;;;;5.20;3.30;;;17.30;99.90;;;;;;5091326;28;20489;-72
2021/06/14 07:28:40;;;;;;;4.83;3.70;;;17.40;99.90;;;;;;5091251;28;20457;-72
2021/06/14 07:31:09;;;;;;;6.73;3.40;;;17.50;99.90;;;;;;5090914;28;20492;-72
2021/06/14 07:33:36;;;;;;;5.47;3.00;;;17.60;99.90;;;;;;5090383;28;20925;-71
2021/06/14 07:36:04;;;;;;;4.50;3.73;;;17.80;99.90;;;;;;5091159;28;20899;-72
2021/06/14 07:38:31;;;;;;;5.63;3.23;;;17.80;99.90;;;;;;5091301;28;20457;-72
2021/06/14 07:40:58;;;;;;;5.10;3.67;;;17.90;99.90;;;;;;5090583;28;20595;-71
2021/06/14 07:43:27;;;;;;;4.20;2.90;;;18.00;99.90;;;;;;5091160;28;20453;-72
2021/06/14 07:45:54;;;;;;;7.93;4.00;;;18.10;99.90;;;;;;5090709;28;20462;-72
2021/06/14 07:48:22;;;;;;;4.43;3.37;;;18.20;99.90;;;;;;5090881;28;20453;-72
2021/06/14 07:50:50;;;;;;;3.30;3.00;;;18.40;99.90;;;;;;5090713;28;20473;-71
2021/06/14 07:53:17;;;;;;;5.87;3.60;;;18.50;99.90;;;;;;5090617;28;20462;-72
2021/06/14 07:55:44;;;;;;;4.87;3.13;;;18.50;99.90;;;;;;5090853;28;20457;-71
2021/06/14 07:58:11;;;;;;;6.57;2.90;;;18.60;99.90;;;;;;5090652;28;20462;-72
2021/06/14 08:01:11;;;;;;;9.80;3.47;;;18.60;99.90;;;;;;5090932;28;20481;-71
2021/06/14 08:03:37;;;;;;;5.20;3.17;;;18.70;99.90;;;;;;5084579;28;20469;-72
2021/06/14 08:06:05;;;;;;;5.63;3.17;;;18.80;99.90;;;;;;5090622;28;20823;-72
2021/06/14 08:08:32;;;;;;;7.63;3.50;;;18.90;99.90;;;;;;5090596;28;20462;-72
2021/06/14 08:10:59;;;;;;;4.20;3.17;;;19.10;99.90;;;;;;5089776;28;20843;-72
2021/06/14 08:13:26;;;;;;;3.97;3.53;;;19.10;99.90;;;;;;5090619;28;20466;-71
2021/06/14 08:15:53;;;;;;;3.87;3.00;;;19.30;99.90;;;;;;5090148;28;20891;-72
2021/06/14 08:18:33;;;;;;;5.10;3.10;;;19.30;99.90;;;;;;5090798;28;20461;-72
2021/06/14 08:21:14;;;;;;;5.67;3.30;;;19.40;99.90;;;;;;5090336;28;20530;-71
2021/06/14 08:26:27;;;;;;;4.10;2.80;;;19.60;99.90;;;;;;5090374;28;20476;-72
2021/06/14 08:28:56;;;;;;;3.70;3.00;;;19.70;99.90;;;;;;5089964;28;20461;-72
2021/06/14 08:31:23;;;;;;;4.60;3.70;;;19.80;99.90;;;;;;5089330;28;20831;-72
2021/06/14 08:33:51;;;;;;;3.90;3.17;;;19.80;99.90;;;;;;5089564;28;20450;-72
2021/06/14 08:36:18;;;;;;;4.90;3.50;;;19.90;99.90;;;;;;5089974;28;20454;-72
2021/06/14 08:38:47;;;;;;;5.50;3.27;;;19.90;99.90;;;;;;5087083;28;20453;-72
2021/06/14 08:41:15;;;;;;;8.23;3.60;;;20.00;99.90;;;;;;5089319;28;20489;-72
2021/06/14 08:43:42;;;;;;;6.47;3.07;;;20.10;99.90;;;;;;5089722;28;20461;-72
2021/06/14 08:46:09;;;;;;;3.57;3.27;;;20.10;99.90;;;;;;5093505;28;20458;-72
2021/06/14 08:48:37;;;;;;;6.00;3.30;;;20.20;99.90;;;;;;5093739;28;20971;-72
2021/06/14 08:51:06;;;;;;;4.80;3.10;;;20.30;99.90;;;;;;5093043;28;20481;-72
2021/06/14 08:53:32;;;;;;;5.13;3.10;;;20.40;99.90;;;;;;5093636;28;20457;-72
2021/06/14 08:56:00;;;;;;;4.23;3.03;;;20.40;99.90;;;;;;5093949;28;20823;-72
2021/06/14 08:58:29;;;;;;;8.73;3.40;;;20.50;99.90;;;;;;5090644;28;20952;-72
2021/06/14 09:00:56;;;;;;;4.60;3.03;;;20.60;99.90;;;;;;5093385;28;20469;-72
2021/06/14 09:03:24;;;;;;;6.30;3.50;;;20.60;99.90;;;;;;5093231;28;21058;-73
2021/06/14 09:05:51;;;;;;;4.00;3.10;;;20.70;99.90;;;;;;5093562;28;20846;-71
2021/06/14 09:08:22;;;;;;;4.87;3.40;;;20.80;99.90;;;;;;5093280;28;20480;-71
2021/06/14 09:10:49;;;;;;;4.50;2.90;;;20.90;99.30;;;;;;5090553;28;20488;-71
2021/06/14 09:13:18;;;;;;;4.33;3.03;;;21.00;99.90;;;;;;5093485;28;20918;-71
2021/06/14 09:15:47;;;;;;;5.37;2.97;;;21.10;99.90;;;;;;5092983;28;20531;-71
2021/06/14 09:18:15;;;;;;;5.67;2.87;;;21.20;99.90;;;;;;5093771;28;20559;-72
2021/06/14 09:20:57;;;;;;;4.47;2.43;;;21.30;99.90;;;;;;5093140;28;20854;-72
2021/06/14 09:23:26;;;;;;;3.80;2.83;;;21.50;99.90;;;;;;5091357;28;20484;-72
2021/06/14 09:25:54;;;;;;;6.90;3.30;;;21.60;99.90;;;;;;5091552;28;20457;-72
2021/06/14 09:28:21;;;;;;;3.13;2.60;;;21.60;99.90;;;;;;5091442;28;20847;-72
2021/06/14 09:30:48;;;;;;;3.80;3.00;;;21.70;99.90;;;;;;5088297;28;20465;-71
2021/06/14 09:33:24;;;;;;;4.00;2.47;;;21.70;99.90;;;;;;5091334;28;20461;-72
2021/06/14 09:35:53;;;;;;;5.30;3.23;;;21.80;99.90;;;;;;5089929;28;20461;-71
2021/06/14 09:38:23;;;;;;;6.60;3.40;;;22.00;99.90;;;;;;5091236;28;20461;-72
2021/06/14 09:40:53;;;;;;;2.97;2.57;;;22.10;99.90;;;;;;5091066;28;20469;-72
2021/06/14 09:43:26;;;;;;;5.00;2.63;;;22.20;99.90;;;;;;5091403;28;20465;-72
2021/06/14 09:45:54;;;;;;;3.20;2.43;;;22.30;99.90;;;;;;5090943;28;20504;-72
2021/06/14 09:48:23;;;;;;;4.73;2.53;;;22.50;99.90;;;;;;5090878;28;20473;-71
2021/06/14 09:50:52;;;;;;;5.10;2.90;;;22.60;99.20;;;;;;5090437;28;21010;-71
2021/06/14 09:53:21;;;;;;;4.20;2.87;;;22.60;99.90;;;;;;5091132;28;20468;-71
2021/06/14 09:55:52;;;;;;;3.07;2.77;;;22.70;99.90;;;;;;5087623;28;20457;-71
2021/06/14 09:58:22;;;;;;;5.70;2.90;;;22.70;99.90;;;;;;5091031;28;20524;-72
2021/06/14 10:00:55;;;;;;;4.00;2.77;;;22.80;99.90;;;;;;5088252;28;20481;-71
2021/06/14 10:03:25;;;;;;;4.53;2.67;;;22.90;96.90;;;;;;5090431;28;20462;-71
2021/06/14 10:05:54;;;;;;;3.70;3.30;;;22.90;98.00;;;;;;5090816;28;20573;-72
2021/06/14 10:08:31;;;;;;;3.03;2.73;;;23.10;99.90;;;;;;5090412;28;20486;-71
2021/06/14 10:11:08;;;;;;;3.33;2.23;;;23.20;97.90;;;;;;5090257;28;20481;-72
2021/06/14 10:13:38;;;;;;;3.20;2.70;;;23.30;98.70;;;;;;5089082;28;20465;-72
2021/06/14 10:16:08;;;;;;;4.03;2.53;;;23.30;97.70;;;;;;5087464;28;20458;-72
2021/06/14 10:18:38;;;;;;;4.13;3.40;;;23.40;98.20;;;;;;5090576;28;20552;-72
2021/06/14 10:21:08;;;;;;;3.17;2.77;;;23.40;97.50;;;;;;5087861;28;20913;-71
2021/06/14 10:23:35;;;;;;;3.33;2.27;;;23.50;98.00;;;;;;5090937;28;20870;-71
2021/06/14 10:26:05;;;;;;;3.53;2.33;;;23.50;97.70;;;;;;5090574;28;20514;-71
2021/06/14 10:28:32;;;;;;;2.93;2.70;;;23.50;96.10;;;;;;5090305;28;20500;-71
2021/06/14 10:30:59;;;;;;;2.90;2.60;;;23.60;96.90;;;;;;5090612;28;20485;-72
2021/06/14 10:33:30;;;;;;;4.50;2.60;;;23.80;98.30;;;;;;5090602;28;20457;-72
2021/06/14 10:35:58;;;;;;;3.73;2.83;;;23.70;97.10;;;;;;5090715;28;20460;-71
2021/06/14 10:38:26;;;;;;;2.50;2.30;;;23.80;97.50;;;;;;5090256;28;20465;-72
2021/06/14 10:40:55;;;;;;;4.50;2.90;;;23.80;96.90;;;;;;5089886;28;20471;-71
2021/06/14 10:43:27;;;;;;;4.47;2.93;;;23.90;97.70;;;;;;5090500;28;20837;-72
2021/06/14 10:45:56;;;;;;;3.10;2.50;;;24.00;97.90;;;;;;5089865;28;20469;-72
2021/06/14 10:48:28;;;;;;;3.87;2.47;;;24.20;98.10;;;;;;5089918;28;20572;-71
2021/06/14 10:50:57;;;;;;;5.80;2.77;;;24.30;97.40;;;;;;5089461;28;20856;-72
2021/06/14 10:53:26;;;;;;;2.90;2.57;;;24.40;97.30;;;;;;5090097;28;20465;-71
2021/06/14 10:55:54;;;;;;;3.03;2.73;;;24.40;93.40;;;;;;5090413;28;20853;-71
2021/06/14 10:58:27;;;;;;;4.20;2.93;;;24.50;95.50;;;;;;5089702;28;20499;-71
2021/06/14 11:01:04;;;;;;;2.90;2.60;;;24.40;95.90;;;;;;5090018;28;20482;-72
2021/06/14 11:03:43;;;;;;;3.37;2.80;;;24.60;96.30;;;;;;5089666;28;20843;-71
2021/06/14 11:06:19;;;;;;;5.63;2.50;;;24.70;96.70;;;;;;5090150;28;20965;-72
2021/06/14 11:09:01;;;;;;;3.40;2.60;;;24.80;97.20;;;;;;5089723;28;20481;-72
2021/06/14 11:11:30;;;;;;;3.60;2.93;;;24.90;97.30;;;;;;5089476;28;20526;-71
2021/06/14 11:13:59;;;;;;;3.20;2.60;;;25.00;97.40;;;;;;5089853;28;20493;-72
2021/06/14 11:16:37;;;;;;;3.57;2.60;;;25.10;96.10;;;;;;5089385;28;20450;-72
2021/06/14 11:19:05;;;;;;;4.10;2.40;;;25.10;94.60;;;;;;5089970;28;20457;-71
2021/06/14 11:21:32;;;;;;;3.27;2.70;;;25.20;95.30;;;;;;5089294;28;20496;-71
2021/06/14 11:24:10;;;;;;;5.00;2.40;;;25.20;96.90;;;;;;5089671;28;20960;-71
2021/06/14 11:26:38;;;;;;;3.27;2.80;;;25.30;95.10;;;;;;5089913;28;20579;-72
2021/06/14 11:29:16;;;;;;;2.50;2.30;;;25.50;94.30;;;;;;5089379;28;21362;-72
2021/06/14 11:32:00;;;;;;;2.80;2.23;;;25.50;93.20;;;;;;5089367;28;20457;-72
2021/06/14 11:34:38;;;;;;;4.60;2.60;;;25.60;95.30;;;;;;5089548;28;20458;-71
2021/06/14 11:37:06;;;;;;;3.63;2.27;;;25.50;95.20;;;;;;5089646;28;20876;-71
2021/06/14 11:39:35;;;;;;;4.70;2.87;;;25.50;94.90;;;;;;5089068;28;20943;-72
2021/06/14 11:42:10;;;;;;;2.90;2.50;;;25.50;91.40;;;;;;5089019;28;20465;-72
2021/06/14 11:44:50;;;;;;;4.00;2.40;;;25.50;92.80;;;;;;5089454;28;20453;-72
2021/06/14 11:47:20;;;;;;;2.90;2.40;;;25.50;93.50;;;;;;5089027;28;20505;-71
2021/06/14 11:49:50;;;;;;;3.63;2.23;;;25.50;90.80;;;;;;5089338;28;20488;-72
2021/06/14 11:52:19;;;;;;;3.23;2.23;;;25.50;91.80;;;;;;5088523;28;20461;-72
2021/06/14 11:54:48;;;;;;;2.60;2.33;;;25.70;93.60;;;;;;5088506;28;20458;-71
2021/06/14 11:57:15;;;;;;;3.70;2.87;;;25.70;94.50;;;;;;5088100;28;20457;-72
2021/06/14 11:59:44;;;;;;;3.33;2.60;;;25.90;94.40;;;;;;5088140;28;20511;-72
2021/06/14 12:02:21;;;;;;;2.80;2.47;;;26.00;92.70;;;;;;5088100;28;20458;-72
2021/06/14 12:04:55;;;;;;;4.67;2.63;;;26.00;93.60;;;;;;5086430;28;20496;-72
2021/06/14 12:07:30;;;;;;;3.73;2.50;;;26.10;93.40;;;;;;5086079;28;20473;-72
2021/06/14 12:10:02;;;;;;;3.87;2.47;;;26.20;93.60;;;;;;5087341;28;20476;-72
2021/06/14 12:12:29;;;;;;;5.00;3.10;;;26.30;93.60;;;;;;5087362;28;20458;-72
2021/06/14 12:14:58;;;;;;;4.70;2.73;;;26.40;93.40;;;;;;5087769;28;20926;-71
2021/06/14 12:17:28;;;;;;;3.93;2.47;;;26.40;93.40;;;;;;5088049;28;20467;-71
2021/06/14 12:19:55;;;;;;;3.00;2.57;;;26.50;92.10;;;;;;5086355;28;20477;-72
2021/06/14 12:22:23;;;;;;;3.50;3.07;;;26.50;93.50;;;;;;5087313;28;20458;-71
2021/06/14 12:24:51;;;;;;;3.30;2.40;;;26.60;93.70;;;;;;5087877;28;20458;-71
2021/06/14 12:27:20;;;;;;;2.40;2.20;;;26.60;94.20;;;;;;5087673;28;20460;-71
2021/06/14 12:29:54;;;;;;;3.13;2.80;;;26.80;93.70;;;;;;5087867;28;20484;-72
2021/06/14 12:32:23;;;;;;;7.07;2.67;;;26.80;93.60;;;;;;5085420;28;21386;-71
2021/06/14 12:34:50;;;;;;;3.00;2.70;;;26.80;92.70;;;;;;5087164;28;20473;-71
2021/06/14 12:37:20;;;;;;;3.73;2.70;;;26.90;92.50;;;;;;5088518;28;20845;-72
2021/06/14 12:39:57;;;;;;;3.63;2.20;;;26.90;92.50;;;;;;5088022;28;20490;-72
2021/06/14 12:42:25;;;;;;;6.30;2.70;;;26.90;91.90;;;;;;5089264;28;20469;-71
2021/06/14 12:45:00;;;;;;;3.20;2.37;;;27.00;93.10;;;;;;5089990;28;20925;-71
2021/06/14 12:47:29;;;;;;;9.33;2.57;;;27.20;93.10;;;;;;5090159;28;20462;-72
2021/06/14 12:49:57;;;;;;;4.10;2.27;;;27.20;93.20;;;;;;5090167;28;20471;-72
2021/06/14 12:52:25;;;;;;;3.07;2.40;;;27.40;93.40;;;;;;5089637;28;20455;-73
2021/06/14 12:54:53;;;;;;;4.50;2.57;;;27.40;92.90;;;;;;5090126;28;20467;-74
2021/06/14 12:57:24;;;;;;;7.20;2.70;;;27.40;92.60;;;;;;5089772;28;20977;-74
2021/06/14 12:59:51;;;;;;;4.03;2.43;;;27.40;92.00;;;;;;5090231;28;21000;-73